Epsom, Indiana
Current Conditions -  °F | °C
As of 6:55 PM on Tuesday 21 Oct 2014 (Local Time) from KDCY Reporting Station
Overcast Overcast  
Wind Chill: 50°   Ceiling: 5000
Heat Index: 50°   Visibility: 10mi
Dew Point: 43°   Wind: 5mph
Humidity: 75%   Direction: 360°N
Pressure: 30.14"   Gusts: NA
Location:  38.7791°N, 87.1828°W
Report Text: KDCY 212355Z AUTO 36004KT 10SM OVC050 10/06 A3014 RMK AO2 T01020060 10171 20100
Loading
Personal Weather Stations






























Interactive Weather Map
Tropical Storm Tracking
New forecast layout! Learn more

10-Day Weather Forecast

Advertisements
Track Severe Weather on mobile